createdAt,value
2019-05-21T00:00:43.886Z,14.80
2019-05-21T00:03:12.417Z,14.80
2019-05-21T00:05:40.931Z,14.80
2019-05-21T00:08:09.464Z,14.70
2019-05-21T00:10:38.125Z,14.70
2019-05-21T00:13:06.561Z,14.70
2019-05-21T00:15:35.029Z,14.70
2019-05-21T00:18:03.746Z,14.60
2019-05-21T00:20:32.622Z,14.70
2019-05-21T00:23:01.065Z,14.60
2019-05-21T00:25:29.529Z,14.60
2019-05-21T00:28:01.034Z,14.50
2019-05-21T00:31:06.031Z,14.50
2019-05-21T00:34:11.207Z,14.50
2019-05-21T00:37:17.947Z,14.50
2019-05-21T00:40:22.896Z,14.50
2019-05-21T00:42:51.435Z,14.50
2019-05-21T00:45:19.930Z,14.50
2019-05-21T00:47:48.409Z,14.50
2019-05-21T00:50:17.034Z,14.50
2019-05-21T00:52:45.546Z,14.50
2019-05-21T00:55:14.813Z,14.60
2019-05-21T00:57:43.251Z,14.60
2019-05-21T01:00:12.247Z,14.50
2019-05-21T01:02:40.731Z,14.50
2019-05-21T01:05:09.337Z,14.50
2019-05-21T01:07:37.770Z,14.50
2019-05-21T01:10:06.700Z,14.50
2019-05-21T01:12:35.143Z,14.50
2019-05-21T01:15:05.826Z,14.50
2019-05-21T01:17:34.288Z,14.40
2019-05-21T01:20:02.726Z,14.40
2019-05-21T01:22:31.196Z,14.40
2019-05-21T01:24:59.664Z,14.40
2019-05-21T01:27:28.100Z,14.40
2019-05-21T01:29:56.565Z,14.40
2019-05-21T01:32:25.021Z,14.40
2019-05-21T01:34:53.534Z,14.40
2019-05-21T01:37:22.002Z,14.50
2019-05-21T01:39:50.806Z,14.30
2019-05-21T01:42:19.270Z,14.30
2019-05-21T01:44:47.702Z,14.20
2019-05-21T01:47:16.174Z,14.20
2019-05-21T01:49:44.602Z,14.10
2019-05-21T01:52:13.068Z,14.00
2019-05-21T01:54:41.534Z,14.00
2019-05-21T01:57:09.974Z,14.10
2019-05-21T01:59:38.431Z,14.10
2019-05-21T02:02:06.889Z,14.00
2019-05-21T02:04:35.354Z,14.00
2019-05-21T02:07:03.785Z,13.90
2019-05-21T02:09:33.894Z,13.90
2019-05-21T02:12:02.367Z,14.00
2019-05-21T02:14:30.830Z,13.90
2019-05-21T02:16:59.270Z,14.00
2019-05-21T02:19:27.747Z,13.90
2019-05-21T02:21:56.185Z,13.90
2019-05-21T02:24:24.642Z,13.90
2019-05-21T02:26:53.079Z,13.90
2019-05-21T02:29:21.602Z,13.90
2019-05-21T02:31:50.102Z,14.00
2019-05-21T02:34:18.583Z,14.00
2019-05-21T02:36:47.053Z,14.00
2019-05-21T02:39:15.482Z,14.00
2019-05-21T02:41:44.030Z,14.00
2019-05-21T02:44:12.497Z,14.00
2019-05-21T02:46:40.968Z,14.00
2019-05-21T02:49:09.427Z,14.00
2019-05-21T02:51:37.903Z,14.00
2019-05-21T02:54:06.479Z,14.00
2019-05-21T02:56:34.950Z,13.90
2019-05-21T02:59:03.383Z,13.90
2019-05-21T03:01:33.574Z,13.90
2019-05-21T03:04:02.102Z,13.90
2019-05-21T03:06:30.618Z,13.80
2019-05-21T03:08:59.153Z,13.80
2019-05-21T03:11:27.586Z,13.80
2019-05-21T03:13:56.125Z,13.80
2019-05-21T03:16:24.566Z,13.90
2019-05-21T03:18:53.019Z,13.80
2019-05-21T03:21:21.503Z,13.80
2019-05-21T03:23:50.006Z,13.70
2019-05-21T03:26:18.465Z,13.70
2019-05-21T03:28:46.955Z,13.70
2019-05-21T03:31:15.425Z,13.70
2019-05-21T03:33:43.935Z,13.70
2019-05-21T03:36:29.679Z,13.70
2019-05-21T03:38:42.715Z,13.70
2019-05-21T03:41:11.157Z,13.80
2019-05-21T03:43:39.620Z,13.80
2019-05-21T03:46:08.062Z,13.80
2019-05-21T03:48:36.594Z,13.70
2019-05-21T03:51:05.035Z,13.70
2019-05-21T03:53:33.498Z,13.60
2019-05-21T03:56:01.938Z,13.60
2019-05-21T03:58:30.403Z,13.60
2019-05-21T04:00:58.868Z,13.60
2019-05-21T04:03:27.447Z,13.70
2019-05-21T04:05:55.927Z,13.60
2019-05-21T04:08:24.426Z,13.70
2019-05-21T04:10:52.896Z,13.80
2019-05-21T04:13:21.354Z,13.70
2019-05-21T04:15:51.442Z,13.70
2019-05-21T04:18:21.538Z,13.70
2019-05-21T04:20:49.997Z,13.70
2019-05-21T04:23:18.440Z,13.60
2019-05-21T04:25:46.902Z,13.60
2019-05-21T04:28:15.343Z,13.50
2019-05-21T04:30:43.802Z,13.50
2019-05-21T04:33:12.240Z,13.50
2019-05-21T04:35:40.714Z,13.50
2019-05-21T04:38:09.150Z,13.60
2019-05-21T04:40:37.599Z,13.50
2019-05-21T04:43:06.058Z,13.60
2019-05-21T04:45:34.575Z,13.50
2019-05-21T04:48:03.033Z,13.50
2019-05-21T04:50:31.472Z,13.50
2019-05-21T04:52:59.944Z,13.60
2019-05-21T04:55:28.444Z,13.50
2019-05-21T04:57:56.918Z,13.50
2019-05-21T05:00:25.356Z,13.50
2019-05-21T05:02:53.804Z,13.50
2019-05-21T05:05:22.276Z,13.50
2019-05-21T05:07:50.715Z,13.50
2019-05-21T05:10:19.180Z,13.50
2019-05-21T05:12:47.637Z,13.50
2019-05-21T05:15:16.157Z,13.50
2019-05-21T05:17:44.621Z,13.60
2019-05-21T05:20:13.197Z,13.50
2019-05-21T05:22:41.670Z,13.50
2019-05-21T05:25:10.194Z,13.60
2019-05-21T05:27:38.642Z,13.60
2019-05-21T05:30:08.243Z,13.60
2019-05-21T05:32:36.788Z,13.60
2019-05-21T05:35:08.686Z,13.70
2019-05-21T05:37:44.031Z,13.60
2019-05-21T05:40:07.958Z,13.60
2019-05-21T05:42:36.551Z,13.60
2019-05-21T05:45:07.701Z,13.60
2019-05-21T05:47:36.325Z,13.50
2019-05-21T05:50:08.661Z,13.60
2019-05-21T05:52:37.418Z,13.70
2019-05-21T05:55:07.212Z,13.70
2019-05-21T05:57:35.678Z,13.70
2019-05-21T06:00:06.123Z,13.70
2019-05-21T06:02:34.607Z,13.60
2019-05-21T06:05:03.291Z,13.60
2019-05-21T06:07:31.759Z,13.70
2019-05-21T06:10:00.257Z,13.70
2019-05-21T06:12:28.766Z,13.70
2019-05-21T06:14:57.274Z,13.70
2019-05-21T06:17:25.712Z,13.60
2019-05-21T06:19:54.178Z,13.70
2019-05-21T06:22:22.614Z,13.70
2019-05-21T06:24:51.072Z,13.70
2019-05-21T06:27:19.542Z,13.70
2019-05-21T06:29:47.981Z,13.70
2019-05-21T06:32:16.437Z,13.70
2019-05-21T06:34:44.882Z,13.80
2019-05-21T06:37:13.355Z,13.80
2019-05-21T06:39:41.791Z,13.80
2019-05-21T06:42:10.347Z,13.90
2019-05-21T06:44:38.777Z,13.90
2019-05-21T06:47:07.213Z,14.00
2019-05-21T06:49:35.672Z,14.00
2019-05-21T06:52:04.214Z,14.10
2019-05-21T06:54:32.690Z,14.00
2019-05-21T06:57:01.118Z,14.00
2019-05-21T06:59:29.574Z,13.90
2019-05-21T07:01:58.052Z,13.90
2019-05-21T07:04:26.497Z,13.90
2019-05-21T07:06:54.937Z,13.90
2019-05-21T07:09:23.402Z,13.90
2019-05-21T07:11:51.868Z,13.80
2019-05-21T07:14:20.297Z,13.70
2019-05-21T07:16:48.766Z,13.80
2019-05-21T07:19:17.238Z,13.80
2019-05-21T07:21:45.678Z,13.80
2019-05-21T07:24:14.147Z,13.90
2019-05-21T07:26:42.710Z,13.90
2019-05-21T07:29:11.265Z,13.80
2019-05-21T07:31:39.856Z,13.80
2019-05-21T07:34:08.326Z,13.90
2019-05-21T07:36:36.786Z,13.90
2019-05-21T07:39:07.292Z,13.90
2019-05-21T07:41:35.767Z,13.90
2019-05-21T07:44:04.299Z,13.90
2019-05-21T07:46:32.835Z,13.90
2019-05-21T07:49:01.262Z,13.90
2019-05-21T07:51:29.726Z,13.90
2019-05-21T07:53:58.165Z,13.90
2019-05-21T07:56:26.640Z,13.90
2019-05-21T07:58:55.078Z,14.00
2019-05-21T08:01:23.548Z,14.00
2019-05-21T08:03:51.983Z,14.00
2019-05-21T08:06:20.450Z,14.10
2019-05-21T08:08:48.955Z,14.00
2019-05-21T08:11:17.414Z,14.00
2019-05-21T08:13:45.854Z,14.10
2019-05-21T08:16:14.317Z,14.00
2019-05-21T08:18:42.750Z,14.10
2019-05-21T08:21:11.193Z,14.20
2019-05-21T08:23:39.660Z,14.10
2019-05-21T08:26:08.100Z,14.10
2019-05-21T08:28:36.567Z,14.00
2019-05-21T08:31:05.006Z,14.10
2019-05-21T08:33:33.482Z,14.20
2019-05-21T08:36:02.097Z,14.20
2019-05-21T08:38:30.736Z,14.10
2019-05-21T08:40:59.176Z,14.10
2019-05-21T08:43:27.811Z,14.10
2019-05-21T08:45:56.273Z,14.10
2019-05-21T08:48:24.743Z,14.20
2019-05-21T08:50:53.201Z,14.10
2019-05-21T08:53:21.637Z,14.10
2019-05-21T08:55:50.109Z,14.00
2019-05-21T08:58:18.671Z,14.00
2019-05-21T09:00:47.154Z,14.10
2019-05-21T09:03:15.621Z,14.10
2019-05-21T09:05:44.055Z,14.20
2019-05-21T09:08:12.523Z,14.30
2019-05-21T09:10:42.357Z,14.30
2019-05-21T09:13:10.821Z,14.20
2019-05-21T09:15:39.670Z,14.20
2019-05-21T09:18:08.142Z,14.20
2019-05-21T09:20:36.614Z,14.30
2019-05-21T09:23:05.201Z,14.30
2019-05-21T09:25:33.639Z,14.30
2019-05-21T09:28:02.103Z,14.50
2019-05-21T09:30:30.557Z,14.50
2019-05-21T09:32:59.087Z,14.50
2019-05-21T09:35:27.530Z,14.50
2019-05-21T09:37:55.987Z,14.50
2019-05-21T09:40:26.167Z,14.60
2019-05-21T09:42:54.599Z,14.60
2019-05-21T09:45:23.133Z,14.60
2019-05-21T09:47:51.627Z,14.50
2019-05-21T09:50:20.307Z,14.50
2019-05-21T09:52:48.842Z,14.70
2019-05-21T09:55:17.554Z,14.80
2019-05-21T09:57:47.798Z,14.80
2019-05-21T10:00:18.382Z,14.60
2019-05-21T10:02:47.419Z,14.50
2019-05-21T10:05:16.391Z,14.50
2019-05-21T10:07:44.912Z,14.50
2019-05-21T10:10:13.378Z,14.50
2019-05-21T10:12:41.842Z,14.60
2019-05-21T10:15:10.291Z,14.60
2019-05-21T10:17:38.767Z,14.70
2019-05-21T10:20:07.744Z,14.70
2019-05-21T10:22:36.269Z,14.60
2019-05-21T10:25:06.265Z,14.60
2019-05-21T10:27:34.732Z,14.50
2019-05-21T10:30:04.266Z,14.60
2019-05-21T10:32:32.714Z,14.60
2019-05-21T10:35:01.158Z,14.50
2019-05-21T10:37:30.635Z,14.40
2019-05-21T10:39:59.238Z,14.40
2019-05-21T10:42:27.680Z,14.40
2019-05-21T10:44:56.157Z,14.50
2019-05-21T10:47:24.677Z,14.50
2019-05-21T10:49:53.198Z,14.60
2019-05-21T10:52:21.636Z,14.50
2019-05-21T10:54:50.102Z,14.50
2019-05-21T10:57:18.606Z,14.40
2019-05-21T10:59:47.103Z,14.40
2019-05-21T11:02:17.369Z,14.40
2019-05-21T11:04:47.452Z,14.40
2019-05-21T11:07:17.221Z,14.40
2019-05-21T11:09:45.702Z,14.40
2019-05-21T11:12:14.352Z,14.40
2019-05-21T11:14:42.814Z,14.30
2019-05-21T11:17:11.987Z,14.30
2019-05-21T11:19:40.783Z,14.20
2019-05-21T11:22:09.245Z,14.20
2019-05-21T11:24:37.705Z,14.10
2019-05-21T11:27:06.311Z,14.10
2019-05-21T11:29:34.745Z,14.10
2019-05-21T11:32:03.206Z,14.10
2019-05-21T11:34:31.741Z,14.00
2019-05-21T11:37:00.350Z,14.00
2019-05-21T11:39:28.883Z,14.00
2019-05-21T11:41:57.321Z,14.00
2019-05-21T11:44:26.042Z,13.90
2019-05-21T11:46:54.487Z,13.80
2019-05-21T11:49:22.937Z,13.80
2019-05-21T11:51:51.370Z,13.70
2019-05-21T11:54:19.900Z,13.80
2019-05-21T11:56:48.333Z,13.70
2019-05-21T11:59:16.878Z,13.70
2019-05-21T12:01:45.432Z,13.70
2019-05-21T12:04:13.967Z,13.70
2019-05-21T12:06:42.502Z,13.60
2019-05-21T12:09:11.021Z,13.70
2019-05-21T12:11:39.472Z,13.70
2019-05-21T12:14:07.950Z,13.70
2019-05-21T12:16:36.482Z,13.70
2019-05-21T12:19:07.935Z,13.60
2019-05-21T12:21:35.249Z,13.70
2019-05-21T12:24:03.798Z,13.70
2019-05-21T12:26:32.301Z,13.80
2019-05-21T12:29:00.792Z,13.80
2019-05-21T12:31:29.292Z,13.80
2019-05-21T12:33:57.726Z,13.70
2019-05-21T12:36:26.654Z,13.70
2019-05-21T12:38:55.149Z,13.70
2019-05-21T12:41:23.620Z,13.60
2019-05-21T12:43:52.090Z,13.70
2019-05-21T12:46:20.526Z,13.70
2019-05-21T12:48:48.963Z,13.70
2019-05-21T12:51:17.498Z,13.70
2019-05-21T12:53:45.992Z,13.70
2019-05-21T12:56:14.422Z,13.60
2019-05-21T12:58:42.865Z,13.70
2019-05-21T13:01:11.345Z,13.60
2019-05-21T13:03:39.806Z,13.70
2019-05-21T13:06:08.310Z,13.70
2019-05-21T13:08:36.753Z,13.70
2019-05-21T13:11:05.567Z,13.70
2019-05-21T13:13:34.967Z,13.70
2019-05-21T13:16:03.407Z,13.70
2019-05-21T13:18:31.860Z,13.70
2019-05-21T13:21:00.372Z,13.60
2019-05-21T13:23:28.845Z,13.60
2019-05-21T13:25:57.371Z,13.70
2019-05-21T13:28:25.867Z,13.60
2019-05-21T13:30:54.358Z,13.60
2019-05-21T13:33:22.876Z,13.60
2019-05-21T13:35:51.346Z,13.60
2019-05-21T13:38:19.776Z,13.50
2019-05-21T13:40:48.543Z,13.50
2019-05-21T13:43:20.541Z,13.50
2019-05-21T13:45:47.266Z,13.60
2019-05-21T13:48:15.702Z,13.50
2019-05-21T13:50:44.165Z,13.50
2019-05-21T13:53:12.598Z,13.60
2019-05-21T13:55:41.069Z,13.70
2019-05-21T13:58:09.592Z,13.80
2019-05-21T14:00:45.660Z,14.00
2019-05-21T14:03:14.172Z,14.00
2019-05-21T14:05:42.823Z,14.10
2019-05-21T14:08:11.290Z,14.10
2019-05-21T14:10:39.807Z,14.10
2019-05-21T14:13:08.399Z,14.10
2019-05-21T14:15:36.941Z,14.20
2019-05-21T14:18:05.420Z,14.30
2019-05-21T14:20:33.935Z,14.50
2019-05-21T14:23:02.430Z,14.70
2019-05-21T14:25:31.144Z,14.80
2019-05-21T14:27:59.666Z,14.90
2019-05-21T14:30:28.255Z,15.10
2019-05-21T14:32:56.793Z,15.10
2019-05-21T14:35:25.261Z,15.00
2019-05-21T14:37:53.733Z,15.00
2019-05-21T14:40:31.635Z,14.90
2019-05-21T14:42:59.787Z,14.90
2019-05-21T14:45:29.758Z,14.90
2019-05-21T14:47:55.421Z,14.90
2019-05-21T14:50:23.863Z,15.00
2019-05-21T14:52:52.537Z,15.00
2019-05-21T14:55:21.053Z,15.10
2019-05-21T14:57:49.489Z,15.10
2019-05-21T15:00:37.935Z,15.20
2019-05-21T15:03:06.466Z,15.30
2019-05-21T15:05:35.864Z,15.20
2019-05-21T15:08:05.457Z,15.20
2019-05-21T15:10:47.376Z,15.40
2019-05-21T15:13:06.047Z,15.50
2019-05-21T15:15:35.328Z,15.60
2019-05-21T15:18:03.946Z,15.70
2019-05-21T15:20:52.211Z,15.70
2019-05-21T15:23:20.678Z,15.70
2019-05-21T15:25:49.178Z,15.70
2019-05-21T15:28:17.649Z,15.80
2019-05-21T15:30:46.084Z,15.70
2019-05-21T15:33:14.618Z,15.70
2019-05-21T15:35:43.082Z,15.60
2019-05-21T15:38:11.668Z,15.60
2019-05-21T15:40:40.121Z,15.50
2019-05-21T15:43:08.595Z,15.50
2019-05-21T15:45:37.098Z,15.50
2019-05-21T15:48:05.834Z,15.50
2019-05-21T15:50:34.347Z,15.50
2019-05-21T15:53:02.834Z,15.60
2019-05-21T15:55:31.366Z,15.60
2019-05-21T15:57:59.810Z,15.50
2019-05-21T16:00:28.649Z,15.50
2019-05-21T16:02:57.142Z,15.50
2019-05-21T16:05:25.622Z,15.60
2019-05-21T16:07:54.090Z,15.60
2019-05-21T16:10:22.535Z,15.60
2019-05-21T16:12:54.052Z,15.50
2019-05-21T16:15:21.247Z,15.50
2019-05-21T16:17:49.714Z,15.50
2019-05-21T16:20:18.294Z,15.50
2019-05-21T16:22:46.760Z,15.50
2019-05-21T16:25:15.335Z,15.50
2019-05-21T16:27:43.858Z,15.40
2019-05-21T16:30:12.751Z,15.50
2019-05-21T16:32:41.307Z,15.60
2019-05-21T16:35:10.597Z,15.70
2019-05-21T16:37:39.139Z,15.70
2019-05-21T16:40:08.426Z,15.80
2019-05-21T16:42:36.885Z,15.80
2019-05-21T16:45:07.823Z,15.80
2019-05-21T16:47:45.499Z,15.90
2019-05-21T16:50:07.741Z,15.90
2019-05-21T16:52:36.417Z,15.90
2019-05-21T16:55:06.385Z,16.00
2019-05-21T16:57:34.847Z,16.00
2019-05-21T17:00:05.323Z,15.90
2019-05-21T17:02:33.797Z,16.00
2019-05-21T17:05:02.602Z,16.00
2019-05-21T17:07:31.069Z,16.00
2019-05-21T17:09:59.522Z,16.00
2019-05-21T17:12:28.023Z,16.00
2019-05-21T17:14:56.507Z,16.10
2019-05-21T17:17:24.968Z,16.00
2019-05-21T17:19:53.425Z,16.10
2019-05-21T17:22:21.942Z,16.10
2019-05-21T17:24:50.389Z,16.10
2019-05-21T17:27:18.858Z,16.10
2019-05-21T17:29:47.301Z,16.20
2019-05-21T17:32:15.753Z,16.20
2019-05-21T17:34:44.290Z,16.10
2019-05-21T17:37:12.734Z,16.20
2019-05-21T17:39:41.210Z,16.10
2019-05-21T17:42:15.656Z,16.20
2019-05-21T17:44:40.463Z,16.20
2019-05-21T17:47:08.994Z,16.10
2019-05-21T17:49:37.454Z,16.20
2019-05-21T17:52:06.026Z,16.20
2019-05-21T17:54:34.496Z,16.10
2019-05-21T17:57:02.967Z,16.20
2019-05-21T17:59:31.472Z,16.10
2019-05-21T18:02:01.651Z,16.20
2019-05-21T18:04:30.842Z,16.20
2019-05-21T18:07:00.122Z,16.10
2019-05-21T18:09:29.190Z,16.10
2019-05-21T18:11:57.903Z,16.10
2019-05-21T18:14:26.357Z,16.10
2019-05-21T18:16:54.863Z,16.10
2019-05-21T18:19:23.343Z,16.00
2019-05-21T18:21:51.791Z,16.00
2019-05-21T18:24:20.340Z,15.90
2019-05-21T18:26:48.814Z,15.90
2019-05-21T18:29:17.254Z,15.90
2019-05-21T18:31:46.422Z,15.80
2019-05-21T18:34:15.227Z,15.70
2019-05-21T18:36:43.971Z,15.70
2019-05-21T18:39:12.578Z,15.60
2019-05-21T18:41:41.083Z,15.60
2019-05-21T18:44:09.565Z,15.60
2019-05-21T18:46:38.062Z,15.50
2019-05-21T18:49:06.519Z,15.50
2019-05-21T18:51:34.958Z,15.50
2019-05-21T18:54:03.511Z,15.50
2019-05-21T18:56:32.043Z,15.40
2019-05-21T18:59:00.774Z,15.40
2019-05-21T19:01:29.277Z,15.40
2019-05-21T19:03:57.822Z,15.40
2019-05-21T19:06:26.397Z,15.30
2019-05-21T19:08:54.840Z,15.20
2019-05-21T19:11:23.311Z,15.10
2019-05-21T19:13:51.895Z,15.10
2019-05-21T19:16:20.436Z,15.00
2019-05-21T19:18:49.009Z,15.00
2019-05-21T19:21:17.542Z,15.00
2019-05-21T19:23:46.057Z,14.90
2019-05-21T19:26:14.507Z,14.90
2019-05-21T19:28:43.011Z,14.90
2019-05-21T19:31:11.567Z,14.90
2019-05-21T19:33:39.994Z,14.80
2019-05-21T19:36:08.431Z,14.80
2019-05-21T19:38:37.362Z,14.80
2019-05-21T19:41:06.092Z,14.80
2019-05-21T19:43:34.534Z,14.70
2019-05-21T19:46:03.101Z,14.70
2019-05-21T19:48:31.687Z,14.60
2019-05-21T19:51:00.543Z,14.60
2019-05-21T19:53:29.243Z,14.60
2019-05-21T19:55:57.855Z,14.50
2019-05-21T19:58:26.339Z,14.50
2019-05-21T20:00:55.367Z,14.50
2019-05-21T20:03:23.866Z,14.50
2019-05-21T20:05:52.767Z,14.40
2019-05-21T20:08:21.208Z,14.40
2019-05-21T20:10:50.014Z,14.40
2019-05-21T20:13:31.852Z,14.40
2019-05-21T20:15:49.180Z,14.40
2019-05-21T20:18:18.015Z,14.40
2019-05-21T20:20:47.398Z,14.30
2019-05-21T20:23:17.774Z,14.30
2019-05-21T20:25:56.125Z,14.30
2019-05-21T20:28:17.185Z,14.30
2019-05-21T20:30:46.559Z,14.30
2019-05-21T20:33:14.990Z,14.20
2019-05-21T20:35:44.320Z,14.20
2019-05-21T20:38:12.925Z,14.20
2019-05-21T20:40:41.738Z,14.20
2019-05-21T20:43:10.784Z,14.10
2019-05-21T20:45:41.434Z,14.10
2019-05-21T20:48:11.080Z,14.10
2019-05-21T20:50:40.166Z,14.10
2019-05-21T20:53:08.829Z,14.10
2019-05-21T20:55:37.379Z,14.10
2019-05-21T20:58:08.225Z,14.10
2019-05-21T21:00:38.442Z,14.00
2019-05-21T21:03:09.718Z,14.00
2019-05-21T21:05:39.208Z,14.00
2019-05-21T21:08:08.455Z,14.00
2019-05-21T21:10:37.980Z,13.90
2019-05-21T21:13:08.409Z,13.90
2019-05-21T21:15:37.288Z,13.90
2019-05-21T21:18:05.987Z,13.90
2019-05-21T21:20:35.148Z,13.90
2019-05-21T21:23:03.842Z,13.90
2019-05-21T21:25:32.393Z,13.90
2019-05-21T21:28:01.277Z,13.80
2019-05-21T21:30:29.859Z,13.90
2019-05-21T21:32:59.994Z,13.90
2019-05-21T21:35:28.496Z,13.80
2019-05-21T21:37:57.040Z,13.90
2019-05-21T21:40:26.115Z,13.80
2019-05-21T21:42:54.856Z,13.80
2019-05-21T21:45:23.388Z,13.80
2019-05-21T21:47:52.230Z,13.80
2019-05-21T21:50:21.565Z,13.80
2019-05-21T21:52:50.350Z,13.80
2019-05-21T21:55:18.907Z,13.80
2019-05-21T21:57:47.341Z,13.80
2019-05-21T22:00:28.015Z,13.70
2019-05-21T22:02:59.714Z,13.80
2019-05-21T22:05:28.428Z,13.70
2019-05-21T22:07:57.044Z,13.70
2019-05-21T22:10:25.555Z,13.70
2019-05-21T22:12:54.022Z,13.70
2019-05-21T22:15:22.535Z,13.70
2019-05-21T22:17:51.166Z,13.70
2019-05-21T22:20:19.605Z,13.70
2019-05-21T22:22:48.073Z,13.70
2019-05-21T22:25:16.669Z,13.60
2019-05-21T22:27:45.111Z,13.60
2019-05-21T22:30:14.268Z,13.60
2019-05-21T22:32:42.738Z,13.60
2019-05-21T22:35:11.516Z,13.60
2019-05-21T22:37:40.153Z,13.60
2019-05-21T22:40:08.958Z,13.60
2019-05-21T22:42:37.475Z,13.60
2019-05-21T22:45:09.130Z,13.60
2019-05-21T22:47:37.900Z,13.60
2019-05-21T22:50:09.534Z,13.60
2019-05-21T22:52:38.067Z,13.60
2019-05-21T22:55:07.839Z,13.60
2019-05-21T22:57:36.308Z,13.60
2019-05-21T23:00:06.855Z,13.50
2019-05-21T23:02:37.003Z,13.50
2019-05-21T23:05:07.149Z,13.50
2019-05-21T23:07:35.759Z,13.60
2019-05-21T23:10:10.150Z,13.60
2019-05-21T23:12:40.090Z,13.50
2019-05-21T23:15:24.433Z,13.50
2019-05-21T23:17:42.897Z,13.50
2019-05-21T23:20:13.478Z,13.50
2019-05-21T23:22:44.935Z,13.50
2019-05-21T23:25:14.417Z,13.50
2019-05-21T23:27:43.373Z,13.40
2019-05-21T23:30:14.746Z,13.50
2019-05-21T23:32:43.954Z,13.50
2019-05-21T23:35:14.339Z,13.40
2019-05-21T23:37:46.577Z,13.40
2019-05-21T23:40:15.600Z,13.40
2019-05-21T23:42:44.151Z,13.40
2019-05-21T23:45:14.799Z,13.40
2019-05-21T23:47:43.274Z,13.40
2019-05-21T23:50:14.254Z,13.40
2019-05-21T23:52:43.094Z,13.40
2019-05-21T23:55:12.293Z,13.30
2019-05-21T23:57:42.083Z,13.30
